METAR Formatted Surface Weather Observation
Issued by NWS

Home | Current Version | Previous Version | Text Only | Print | Product List | Glossary On
Versions: 1 2 3 4 5 6 7 8 9 10 11 12 13 14 15
591
SAUS41 KBOX 192056
MTRMQE
METAR KMQE 192054Z AUTO 29016G26KT 12/M02 A2970 RMK AO1 PK WND
26027/2025 SLP069 T01171022 53010



USA.gov is the U.S. government's official web portal to all federal, state and local government web resources and services.